Weersoverzicht van METAR-stations binnen 150 km

EHRD - Rotterdam Airport
Afstand tot weerstation: ZO 28 km
Update: 20-10-2020 16:25
Gedeeltelijk bewolkt
Gedeeltelijk bewolkt
 Wind van Z
Wind: Z 24 km/h
Temperatuur: 14°C
Dauwpunt: 12°C
Luchtvochtigheid: 88%
Luchtdruk: 1006 hPa
Bewolking: Gedeeltelijk bewolkt
Zicht: 10 km
2020/10/20 14:25 EHRD 201425Z AUTO 19013KT 150V220 9999 NSC 14/12 Q1006 NOSIG
EHSC - Goeree Le Sea (Platform ter hoogte van Zeeland)
Afstand tot weerstation: WZW 36 km
Update: 20-10-2020 16:25

 Wind van ZZW
Wind: ZZW 39 km/h
Temperatuur: 14°C
Dauwpunt: 12°C
Luchtvochtigheid: 88%
Luchtdruk: 1005 hPa
Zicht: 10 km
2020/10/20 14:25 EHSC 201425Z AUTO 20021KT 9999 ///////// 14/12 Q1005 W14/H12
 
EHAM - A'dam Schiphol
Afstand tot weerstation: ONO 51 km
Update: 20-10-2020 16:25
Helder
Helder
 Wind van Z
Wind: Z 17 km/h
Temperatuur: 14°C
Dauwpunt: 11°C
Luchtvochtigheid: 82%
Luchtdruk: 1006 hPa
Overzicht: Helder
Zicht: Meer dan 10 km
2020/10/20 14:25 EHAM 201425Z 18009KT 140V200 CAVOK 14/11 Q1006 NOSIG
EHSA - Euro Platform (Ter hoogte van Zeeland)
Afstand tot weerstation: W 58 km
Update: 20-10-2020 16:25

 Wind van Z
Wind: Z 46 km/h
Temperatuur: 15°C
Dauwpunt: 12°C
Luchtvochtigheid: 82%
Luchtdruk: 1004 hPa
Zicht: 10 km
2020/10/20 14:25 EHSA 201425Z AUTO 17025KT 9999 ///////// 15/12 Q1004 W13/H15
 
EHPG - P11-B Sea (Platform ter hoogte van Zuid Holland)
Afstand tot weerstation: NW 60 km
Update: 20-10-2020 16:25
Gedeeltelijk bewolkt
Gedeeltelijk bewolkt
 Wind van ZZW
Wind: ZZW 41 km/h
Temperatuur: 15°C
Dauwpunt: 12°C
Luchtvochtigheid: 82%
Luchtdruk: 1003 hPa
Bewolking: Gedeeltelijk bewolkt
Zicht: 9 km
2020/10/20 14:25 EHPG 201425Z AUTO 20022KT 160V310 9000 NSC 15/12 Q1003
EHWO - Vliegveld Woensdrecht
Afstand tot weerstation: ZZO 65 km
Update: 20-10-2020 16:25
Zwaar bewolkt
Zwaar bewolkt
 Wind van Z
Wind: Z 11 km/h
Temperatuur: 15°C
Dauwpunt: 11°C
Luchtvochtigheid: 77%
Luchtdruk: 1006 hPa
Bewolking: Zwaar bewolkt
Zicht: 10 km
Details Bewolking: Enkele wolken 1707 m
Zwaar bewolkt 3353 m
2020/10/20 14:25 EHWO 201425Z AUTO 19006KT 140V250 9999 FEW056 OVC110 15/11 Q1006 BLU
 
EHGR - Vliegveld Gilze-Rijen
Afstand tot weerstation: ZO 79 km
Update: 20-10-2020 16:25
Lichte motregen, Overwegend bewolkt
Lichte motregen, Overwegend bewolkt
 Wind van Z
Wind: Z 17 km/h
Temperatuur: 15°C
Dauwpunt: 12°C
Luchtvochtigheid: 82%
Luchtdruk: 1007 hPa
Overzicht: Lichte motregen
Bewolking: Overwegend bewolkt
Zicht: 10 km
Details Bewolking: Enkele wolken 2408 m
Gedeeltelijk bewolkt 2713 m
Overwegend bewolkt 2926 m
2020/10/20 14:25 EHGR 201425Z AUTO 19009KT 150V240 9999 -DZ FEW079 SCT089 BKN096 15/12 Q1007 BLU NOSIG
EHQE - Hoorn-A Sea (Platform ter hoogte van Noord Holland)
Afstand tot weerstation: N 103 km
Update: 20-10-2020 16:25

 Wind van ZZO
Wind: ZZO 50 km/h
Temperatuur: 14°C
Dauwpunt: 12°C
Luchtvochtigheid: 88%
Luchtdruk: 1003 hPa
2020/10/20 14:25 EHQE 201425Z AUTO 16027KT //// // ////// 14/12 Q1003 RE//
 
EHKD - Marinebasis De Kooy (Den Helder)
Afstand tot weerstation: NNO 114 km
Update: 20-10-2020 16:25
Zwaar bewolkt
Zwaar bewolkt
 Wind van ZZW
Wind: ZZW 26 km/h
Temperatuur: 14°C
Dauwpunt: 11°C
Luchtvochtigheid: 82%
Luchtdruk: 1004 hPa
Bewolking: Zwaar bewolkt
Zicht: 10 km
Details Bewolking: Enkele wolken 1067 m
Zwaar bewolkt 3962 m
2020/10/20 14:25 EHKD 201425Z AUTO 20014KT 170V230 9999 FEW035 OVC130 14/11 Q1004 BLU NOSIG
EHEH - Vliegveld Eindhoven
Afstand tot weerstation: OZO 115 km
Update: 20-10-2020 16:25
Overwegend bewolkt
Overwegend bewolkt
 Wind van Z
Wind: Z 19 km/h
Temperatuur: 15°C
Dauwpunt: 11°C
Luchtvochtigheid: 77%
Luchtdruk: 1008 hPa
Bewolking: Overwegend bewolkt
Zicht: 10 km
Details Bewolking: Enkele wolken 2469 m
Overwegend bewolkt 2652 m
Overwegend bewolkt 2865 m
2020/10/20 14:25 EHEH 201425Z AUTO 19010KT 9999 FEW081 BKN087 BKN094 15/11 Q1008 BLU NOSIG
 
EHVK - Vliegveld Volkel
Afstand tot weerstation: OZO 124 km
Update: 20-10-2020 16:25
Overwegend bewolkt
Overwegend bewolkt
 Wind van Z
Wind: Z 15 km/h
Temperatuur: 15°C
Dauwpunt: 11°C
Luchtvochtigheid: 77%
Luchtdruk: 1008 hPa
Bewolking: Overwegend bewolkt
Zicht: 10 km
Details Bewolking: Enkele wolken 2042 m
Gedeeltelijk bewolkt 2286 m
Overwegend bewolkt 2469 m
2020/10/20 14:25 EHVK 201425Z AUTO 19008KT 150V230 9999 FEW067 SCT075 BKN081 15/11 Q1008 BLU NOSIG
EHDL - Vliegveld Deelen
Afstand tot weerstation: O 128 km
Update: 20-10-2020 16:25
Motregen, Zwaar bewolkt
Motregen, Zwaar bewolkt
 Wind van Variabel
Wind: Variabel 15 km/h
Temperatuur: 13°C
Dauwpunt: 12°C
Luchtvochtigheid: 94%
Luchtdruk: 1007 hPa
Overzicht: Motregen
Bewolking: Zwaar bewolkt
Zicht: 10 km
Details Bewolking: Enkele wolken 2012 m
Gedeeltelijk bewolkt 2957 m
Zwaar bewolkt 3048 m
2020/10/20 14:25 EHDL 201425Z AUTO VRB08KT 9999 DZ FEW066 SCT097 OVC100 13/12 Q1007 BLU